Time;durP1;ratioP1;P1;durP2;ratioP2;P2;SDS_P1;SDS_P2;PMS_P1;PMS_P2;Temp;Humidity;BMP_temperature;BMP_pressure;BME280_temperature;BME280_humidity;BME280_pressure;Samples;Min_cycle;Max_cycle;Signal;HPM_P1;HPM_P2
2022/12/15 00:39:39;;;;;;;20.03;10.37;;;-5.80;99.90;;;;;;5057242;28;20186;-52
2022/12/15 00:42:05;;;;;;;18.10;10.50;;;-5.80;99.90;;;;;;5057436;28;20260;-51
2022/12/15 00:44:32;;;;;;;17.77;10.40;;;-5.70;99.90;;;;;;5058784;28;20199;-53
2022/12/15 00:46:58;;;;;;;14.83;9.73;;;-5.70;99.90;;;;;;5063083;28;20206;-55
2022/12/15 01:22:37;;;;;;;15.33;8.57;;;-5.30;99.90;;;;;;5053766;28;20207;-54
2022/12/15 01:25:06;;;;;;;15.87;10.20;;;-5.20;99.90;;;;;;5056760;28;20271;-49
2022/12/15 01:27:32;;;;;;;18.47;10.43;;;-5.20;99.90;;;;;;5059749;28;20245;-49
2022/12/15 01:29:59;;;;;;;17.43;10.53;;;-5.10;99.90;;;;;;5063521;28;20231;-50
2022/12/15 01:32:27;;;;;;;18.13;10.90;;;-5.10;99.90;;;;;;5059722;28;20220;-54
2022/12/15 01:34:54;;;;;;;23.80;12.40;;;-5.20;99.90;;;;;;5046092;28;20219;-55
2022/12/15 01:37:21;;;;;;;15.27;9.93;;;-5.20;99.90;;;;;;5059555;28;20297;-50
2022/12/15 01:42:34;;;;;;;13.67;9.07;;;-5.20;99.90;;;;;;5052121;28;20232;-54
2022/12/15 01:45:36;;;;;;;14.77;8.23;;;-5.20;99.90;;;;;;5062894;28;20206;-54
2022/12/15 01:48:05;;;;;;;14.77;9.10;;;-5.20;99.90;;;;;;5057891;28;20286;-50
2022/12/15 01:50:37;;;;;;;15.30;8.87;;;-5.10;99.90;;;;;;5042460;28;20213;-48
2022/12/15 01:53:04;;;;;;;21.17;9.40;;;-5.10;99.90;;;;;;5061207;28;20288;-52
2022/12/15 01:55:32;;;;;;;16.80;8.43;;;-5.10;99.90;;;;;;5057694;28;20201;-53
2022/12/15 01:58:05;;;;;;;12.47;8.40;;;-5.00;99.90;;;;;;5058090;28;20215;-52
2022/12/15 02:00:32;;;;;;;15.87;8.57;;;-5.00;99.90;;;;;;5058503;28;20181;-55
2022/12/15 02:03:01;;;;;;;16.47;8.67;;;-5.00;99.90;;;;;;5062229;28;20258;-49
2022/12/15 02:05:30;;;;;;;17.13;9.00;;;-5.00;99.90;;;;;;5043315;28;20201;-53
2022/12/15 02:07:59;;;;;;;17.53;9.90;;;-5.00;99.90;;;;;;5062861;28;20220;-53
2022/12/15 02:10:34;;;;;;;16.20;9.43;;;-5.00;99.90;;;;;;5060074;28;20401;-52
2022/12/15 02:13:11;;;;;;;13.53;8.43;;;-5.00;99.90;;;;;;5057495;28;20703;-51
2022/12/15 02:15:43;;;;;;;21.27;9.93;;;-5.10;99.90;;;;;;5059371;28;20221;-50
2022/12/15 02:18:19;;;;;;;13.60;8.83;;;-5.10;99.90;;;;;;5056679;28;20197;-50
2022/12/15 02:20:53;;;;;;;14.93;8.67;;;-5.10;99.90;;;;;;5029340;28;21748;-49
2022/12/15 02:23:54;;;;;;;16.43;8.77;;;-5.10;99.90;;;;;;5060828;28;20285;-54
2022/12/15 02:26:53;;;;;;;13.60;8.10;;;-5.10;99.90;;;;;;5054548;28;20250;-52
2022/12/15 02:29:39;;;;;;;18.40;8.57;;;-5.20;99.90;;;;;;5057337;28;20807;-55
2022/12/15 02:32:09;;;;;;;13.80;8.20;;;-5.20;99.90;;;;;;5063792;28;20229;-48
2022/12/15 02:34:42;;;;;;;16.20;8.53;;;-5.20;99.90;;;;;;5057481;28;20200;-49
2022/12/15 02:37:13;;;;;;;12.87;8.07;;;-5.20;99.90;;;;;;5050402;28;20678;-48
2022/12/15 02:39:40;;;;;;;18.10;9.30;;;-5.30;99.90;;;;;;5063246;28;20183;-50
2022/12/15 02:42:09;;;;;;;13.93;8.40;;;-5.30;99.90;;;;;;5065460;28;20220;-50
2022/12/15 02:44:43;;;;;;;14.37;8.00;;;-5.30;99.90;;;;;;5057121;28;20201;-48
2022/12/15 02:47:18;;;;;;;15.80;9.07;;;-5.30;99.90;;;;;;5066478;28;20236;-53
2022/12/15 02:49:57;;;;;;;18.30;9.13;;;-5.30;99.90;;;;;;5064448;28;21056;-52
2022/12/15 02:52:39;;;;;;;13.20;8.40;;;-5.30;99.90;;;;;;5046828;28;20303;-53
2022/12/15 02:55:15;;;;;;;15.13;8.57;;;-5.30;99.90;;;;;;5065393;28;20234;-52
2022/12/15 02:57:56;;;;;;;14.00;8.47;;;-5.30;99.90;;;;;;5063148;28;20193;-51
2022/12/15 03:00:23;;;;;;;13.50;7.93;;;-5.40;99.90;;;;;;5058127;28;20206;-52
2022/12/15 03:02:53;;;;;;;14.70;8.80;;;-5.30;99.90;;;;;;5055322;28;20228;-53
2022/12/15 03:05:22;;;;;;;15.00;8.00;;;-5.30;99.90;;;;;;5063679;28;20273;-53
2022/12/15 03:07:50;;;;;;;12.83;8.23;;;-5.30;99.90;;;;;;5045565;28;20213;-52
2022/12/15 03:10:17;;;;;;;15.17;8.23;;;-5.30;99.90;;;;;;5063479;28;20227;-53
2022/12/15 03:12:45;;;;;;;12.50;7.73;;;-5.30;99.90;;;;;;5065125;28;20697;-49
2022/12/15 03:15:11;;;;;;;14.80;8.47;;;-5.30;99.90;;;;;;5057261;28;20217;-48
2022/12/15 03:17:39;;;;;;;12.77;8.63;;;-5.30;99.90;;;;;;5066123;28;20200;-48
2022/12/15 03:20:08;;;;;;;16.27;8.93;;;-5.30;99.90;;;;;;5061685;28;20190;-52
2022/12/15 03:22:36;;;;;;;14.57;8.33;;;-5.30;99.90;;;;;;5049189;28;20305;-47
2022/12/15 03:25:04;;;;;;;17.57;9.20;;;-5.30;99.90;;;;;;5059940;28;20202;-49
2022/12/15 03:27:31;;;;;;;15.47;8.17;;;-5.30;99.90;;;;;;5065743;28;20201;-54
2022/12/15 03:29:58;;;;;;;14.67;8.60;;;-5.30;99.90;;;;;;5057867;28;20223;-52
2022/12/15 03:32:25;;;;;;;13.33;8.30;;;-5.30;99.90;;;;;;5063768;28;20830;-50
2022/12/15 03:34:52;;;;;;;13.67;8.43;;;-5.30;99.90;;;;;;5063090;28;20209;-54
2022/12/15 03:37:20;;;;;;;15.03;8.53;;;-5.40;99.90;;;;;;5063586;28;20928;-52
2022/12/15 03:39:47;;;;;;;15.50;7.80;;;-5.40;99.90;;;;;;5047654;28;20285;-55
2022/12/15 03:42:13;;;;;;;15.67;9.00;;;-5.40;99.90;;;;;;5060673;28;20730;-49
2022/12/15 03:44:40;;;;;;;13.80;7.87;;;-5.40;99.90;;;;;;5065263;28;20210;-55
2022/12/15 03:47:06;;;;;;;14.97;8.77;;;-5.50;99.90;;;;;;5054715;28;20956;-50
2022/12/15 03:49:33;;;;;;;16.00;8.20;;;-5.50;99.90;;;;;;5065250;28;20201;-54
2022/12/15 03:52:00;;;;;;;16.50;8.63;;;-5.50;99.90;;;;;;5060689;28;20753;-51
2022/12/15 03:54:28;;;;;;;15.47;8.50;;;-5.50;99.90;;;;;;5048366;28;20243;-47
2022/12/15 03:56:55;;;;;;;12.27;8.13;;;-5.50;99.90;;;;;;5062204;28;20608;-54
2022/12/15 03:59:22;;;;;;;12.63;7.90;;;-5.50;99.90;;;;;;5064211;28;20202;-53
2022/12/15 04:01:49;;;;;;;13.80;8.07;;;-5.50;99.90;;;;;;5057474;28;20711;-55
2022/12/15 04:04:16;;;;;;;13.57;8.90;;;-5.50;99.90;;;;;;5062738;28;20197;-54
2022/12/15 04:06:43;;;;;;;12.90;9.47;;;-5.50;99.90;;;;;;5063760;28;20240;-52
2022/12/15 04:09:10;;;;;;;15.13;8.47;;;-5.50;99.90;;;;;;5044881;28;20213;-52
2022/12/15 04:11:38;;;;;;;15.80;9.27;;;-5.50;99.90;;;;;;5063522;28;20691;-52
2022/12/15 04:14:05;;;;;;;15.83;9.17;;;-5.40;99.90;;;;;;5059750;28;20198;-49
2022/12/15 04:16:32;;;;;;;11.40;8.73;;;-5.50;99.90;;;;;;5064738;28;20212;-54
2022/12/15 04:21:43;;;;;;;15.70;9.47;;;-5.50;99.90;;;;;;5057560;28;20324;-53
2022/12/15 05:33:22;;;;;;;24.47;10.30;;;-5.30;99.90;;;;;;5055396;28;20896;-52
2022/12/15 05:35:49;;;;;;;19.23;10.83;;;-5.30;99.90;;;;;;5058982;28;20206;-52
2022/12/15 05:38:17;;;;;;;19.47;10.27;;;-5.30;99.90;;;;;;5053752;28;20213;-55
2022/12/15 05:40:44;;;;;;;16.07;8.93;;;-5.30;99.90;;;;;;5058329;28;20198;-50
2022/12/15 05:43:11;;;;;;;15.83;9.53;;;-5.30;99.90;;;;;;5040126;28;20209;-54
2022/12/15 05:45:37;;;;;;;20.50;10.13;;;-5.40;99.90;;;;;;5061825;28;20186;-52
2022/12/15 05:48:05;;;;;;;16.43;9.90;;;-5.40;99.90;;;;;;5056718;28;20237;-53
2022/12/15 05:50:34;;;;;;;18.50;8.40;;;-5.40;99.90;;;;;;5053002;28;20213;-53
2022/12/15 05:53:01;;;;;;;19.87;9.77;;;-5.40;99.90;;;;;;5038628;28;20225;-54
2022/12/15 05:55:28;;;;;;;18.47;10.30;;;-5.40;99.90;;;;;;5049644;28;20198;-53
2022/12/15 05:57:55;;;;;;;14.17;8.90;;;-5.40;99.90;;;;;;5041215;28;20258;-53
2022/12/15 06:00:22;;;;;;;17.17;9.53;;;-5.40;99.90;;;;;;5055921;28;20205;-49
2022/12/15 06:02:49;;;;;;;16.23;9.57;;;-5.40;99.90;;;;;;5056812;28;20220;-49
2022/12/15 06:05:16;;;;;;;14.73;9.33;;;-5.40;99.90;;;;;;5060960;28;20245;-54
2022/12/15 06:07:44;;;;;;;15.97;9.40;;;-5.40;99.90;;;;;;5053359;28;20207;-53
2022/12/15 06:10:11;;;;;;;14.13;9.63;;;-5.40;99.90;;;;;;5057433;28;20224;-48
2022/12/15 06:12:38;;;;;;;15.53;9.20;;;-5.50;99.90;;;;;;5055659;28;20770;-55
2022/12/15 06:15:06;;;;;;;15.23;9.20;;;-5.50;99.90;;;;;;5057025;28;20204;-53
2022/12/15 06:17:33;;;;;;;22.70;10.17;;;-5.50;99.90;;;;;;5060658;28;20228;-52
2022/12/15 06:20:01;;;;;;;16.77;9.70;;;-5.50;99.90;;;;;;5056187;28;20205;-55
2022/12/15 06:22:28;;;;;;;17.20;9.83;;;-5.50;99.90;;;;;;5053509;28;20225;-51
2022/12/15 06:24:56;;;;;;;16.47;9.87;;;-5.50;99.90;;;;;;5057529;28;20197;-50
2022/12/15 06:27:24;;;;;;;15.73;9.13;;;-5.50;99.90;;;;;;5053341;28;20206;-52
2022/12/15 06:29:51;;;;;;;17.00;10.43;;;-5.50;99.90;;;;;;5045005;28;20214;-53
2022/12/15 06:32:18;;;;;;;17.40;10.33;;;-5.50;99.90;;;;;;5062524;28;20309;-52
2022/12/15 06:34:45;;;;;;;18.77;9.27;;;-5.50;99.90;;;;;;5063201;28;20266;-51
2022/12/15 06:37:12;;;;;;;15.27;9.47;;;-5.50;99.90;;;;;;5065643;28;20252;-51
2022/12/15 06:39:39;;;;;;;17.73;9.97;;;-5.50;99.90;;;;;;5052984;28;20837;-54
2022/12/15 06:42:07;;;;;;;16.47;8.77;;;-5.40;99.90;;;;;;5057927;28;20217;-57
2022/12/15 06:44:34;;;;;;;15.67;8.97;;;-5.40;99.90;;;;;;5044640;28;20208;-53
2022/12/15 06:47:01;;;;;;;18.80;10.67;;;-5.40;99.90;;;;;;5053608;28;20303;-48
2022/12/15 06:49:28;;;;;;;17.50;9.53;;;-5.40;99.90;;;;;;5061111;28;20204;-55
2022/12/15 06:51:55;;;;;;;17.67;10.10;;;-5.40;99.90;;;;;;5057429;28;20241;-52
2022/12/15 06:54:22;;;;;;;18.00;10.70;;;-5.40;99.90;;;;;;5057763;28;20201;-50
2022/12/15 06:56:49;;;;;;;16.90;9.03;;;-5.30;99.90;;;;;;5051943;28;20259;-48
2022/12/15 06:59:18;;;;;;;21.40;10.30;;;-5.30;99.90;;;;;;5049202;28;20560;-49
2022/12/15 07:01:44;;;;;;;15.33;9.70;;;-5.30;99.90;;;;;;5054291;28;20227;-54
2022/12/15 07:04:11;;;;;;;18.20;9.90;;;-5.30;99.90;;;;;;5058311;28;20205;-54
2022/12/15 07:06:39;;;;;;;17.53;9.90;;;-5.30;99.90;;;;;;5052912;28;20206;-53
2022/12/15 07:09:09;;;;;;;12.13;9.17;;;-5.30;99.90;;;;;;5052087;28;20201;-55
2022/12/15 07:11:36;;;;;;;16.67;9.00;;;-5.30;99.90;;;;;;5055321;28;20848;-50
2022/12/15 07:14:03;;;;;;;14.27;9.53;;;-5.30;99.90;;;;;;5051364;28;20209;-53
2022/12/15 07:16:31;;;;;;;32.37;13.03;;;-5.20;99.90;;;;;;5043138;28;20189;-51
2022/12/15 07:18:58;;;;;;;43.17;14.33;;;-5.20;99.90;;;;;;5066158;28;20191;-49
2022/12/15 07:21:25;;;;;;;38.40;14.07;;;-5.20;99.90;;;;;;5055110;28;20217;-49
2022/12/15 07:23:52;;;;;;;38.07;14.40;;;-5.10;99.90;;;;;;5063543;28;20215;-47
2022/12/15 07:26:18;;;;;;;31.13;13.50;;;-5.00;99.90;;;;;;5060526;28;20584;-49
2022/12/15 07:28:46;;;;;;;28.10;13.17;;;-5.00;99.90;;;;;;5055085;28;20197;-50
2022/12/15 07:31:14;;;;;;;28.67;12.97;;;-4.90;99.90;;;;;;5040208;28;20575;-52
2022/12/15 07:33:42;;;;;;;39.07;13.50;;;-4.90;99.90;;;;;;5062842;28;20202;-52
2022/12/15 07:36:09;;;;;;;26.37;11.97;;;-4.90;99.90;;;;;;5063540;28;20262;-54
2022/12/15 07:38:36;;;;;;;23.50;11.63;;;-4.90;99.90;;;;;;5064061;28;20211;-53
2022/12/15 07:41:06;;;;;;;20.87;10.60;;;-4.80;99.90;;;;;;5050225;28;20224;-51
2022/12/15 07:43:32;;;;;;;16.90;9.90;;;-4.80;99.90;;;;;;5043807;28;20212;-47
2022/12/15 07:46:00;;;;;;;17.13;10.83;;;-4.80;99.90;;;;;;5030727;28;20953;-54
2022/12/15 07:48:28;;;;;;;20.37;9.57;;;-4.70;99.90;;;;;;5053002;28;20585;-47
2022/12/15 07:50:57;;;;;;;27.13;11.33;;;-4.70;99.90;;;;;;5053079;28;20225;-53
2022/12/15 07:53:26;;;;;;;33.27;12.90;;;-4.60;99.90;;;;;;5060839;28;20203;-50
2022/12/15 07:55:55;;;;;;;27.60;12.80;;;-4.50;99.90;;;;;;5057494;28;20199;-52
2022/12/15 07:58:21;;;;;;;32.37;12.27;;;-4.40;99.90;;;;;;5055991;28;21001;-49
2022/12/15 08:00:48;;;;;;;24.27;11.43;;;-4.40;99.90;;;;;;5054489;28;20208;-52
2022/12/15 08:03:15;;;;;;;22.53;10.73;;;-4.30;99.90;;;;;;5042597;28;20414;-50
2022/12/15 08:05:42;;;;;;;26.23;12.40;;;-4.20;99.90;;;;;;5054831;28;20667;-50
2022/12/15 08:08:11;;;;;;;21.50;11.27;;;-4.20;99.90;;;;;;5053868;28;20206;-52
2022/12/15 08:10:39;;;;;;;23.37;11.57;;;-4.10;99.90;;;;;;5037591;28;20841;-52
2022/12/15 08:13:06;;;;;;;30.77;14.70;;;-4.10;99.90;;;;;;5056791;28;20223;-51
2022/12/15 08:15:35;;;;;;;15.70;10.70;;;-4.00;99.90;;;;;;5052486;28;20241;-54
2022/12/15 08:18:01;;;;;;;26.67;13.70;;;-4.00;99.90;;;;;;5044067;28;20205;-46
2022/12/15 08:20:29;;;;;;;25.27;13.73;;;-3.90;99.90;;;;;;5057035;28;20568;-54
2022/12/15 08:22:56;;;;;;;27.07;13.30;;;-3.90;99.90;;;;;;5060040;28;20957;-46
2022/12/15 08:25:27;;;;;;;19.10;11.47;;;-3.90;99.90;;;;;;5059222;28;20196;-55
2022/12/15 08:27:53;;;;;;;26.87;11.47;;;-3.90;99.90;;;;;;5059887;28;20190;-46
2022/12/15 08:30:20;;;;;;;19.97;10.57;;;-3.80;99.90;;;;;;5057174;28;20218;-52
2022/12/15 08:32:47;;;;;;;25.27;12.03;;;-3.80;99.90;;;;;;5058382;28;20280;-47
2022/12/15 08:35:14;;;;;;;30.27;13.70;;;-3.70;99.90;;;;;;5043946;28;20214;-49
2022/12/15 08:37:41;;;;;;;40.50;14.63;;;-3.70;99.90;;;;;;5052823;28;20240;-48
2022/12/15 08:40:09;;;;;;;33.63;12.83;;;-3.60;99.90;;;;;;5061485;28;20224;-49
2022/12/15 08:42:38;;;;;;;25.90;11.73;;;-3.60;99.90;;;;;;5058730;28;20209;-54
2022/12/15 08:45:06;;;;;;;24.33;11.83;;;-3.50;99.90;;;;;;5056748;28;20205;-50
2022/12/15 08:47:33;;;;;;;17.90;11.70;;;-3.50;99.90;;;;;;5057134;28;20208;-54
2022/12/15 08:49:59;;;;;;;22.40;11.80;;;-3.50;99.90;;;;;;5048530;28;20209;-46
2022/12/15 08:52:26;;;;;;;25.50;12.03;;;-3.50;99.90;;;;;;5054091;28;20637;-51
2022/12/15 08:54:54;;;;;;;17.60;11.27;;;-3.40;99.90;;;;;;5058864;28;20198;-44
2022/12/15 08:57:20;;;;;;;21.63;11.10;;;-3.30;99.90;;;;;;5055404;28;20204;-53
2022/12/15 08:59:49;;;;;;;18.80;11.43;;;-3.30;99.90;;;;;;5055888;28;20193;-48
2022/12/15 09:02:15;;;;;;;20.00;10.93;;;-3.20;99.90;;;;;;5051910;28;20214;-50
2022/12/15 09:04:43;;;;;;;20.57;11.80;;;-3.10;99.90;;;;;;5039994;28;20213;-46
2022/12/15 09:07:09;;;;;;;22.97;11.43;;;-3.10;99.90;;;;;;5055989;28;20255;-49
2022/12/15 09:09:36;;;;;;;19.93;11.37;;;-3.00;99.90;;;;;;5051898;28;20274;-53
2022/12/15 09:12:02;;;;;;;17.13;10.60;;;-3.00;99.90;;;;;;5055329;28;20223;-50
2022/12/15 09:14:30;;;;;;;19.00;11.27;;;-2.90;99.90;;;;;;5058782;28;20194;-55
2022/12/15 09:16:58;;;;;;;22.60;11.10;;;-2.80;99.90;;;;;;5056153;28;20206;-50
2022/12/15 09:19:25;;;;;;;19.67;10.97;;;-2.70;99.90;;;;;;5051100;28;20274;-54
2022/12/15 09:21:52;;;;;;;22.80;12.20;;;-2.60;99.90;;;;;;5047197;28;20215;-49
2022/12/15 09:24:18;;;;;;;20.90;12.30;;;-2.50;99.90;;;;;;5059787;28;20194;-49
2022/12/15 09:26:45;;;;;;;19.83;12.23;;;-2.40;99.90;;;;;;5059967;28;20186;-45
2022/12/15 09:29:13;;;;;;;18.63;12.07;;;-2.40;99.90;;;;;;5050904;28;20206;-44
2022/12/15 09:31:43;;;;;;;21.00;11.60;;;-2.30;99.90;;;;;;5047558;28;20899;-44
2022/12/15 09:34:13;;;;;;;17.03;10.40;;;-2.20;99.90;;;;;;5059840;28;20214;-49
2022/12/15 09:36:40;;;;;;;15.57;9.93;;;-2.10;99.90;;;;;;5035187;28;20979;-46
2022/12/15 09:39:07;;;;;;;16.73;10.97;;;-2.10;99.90;;;;;;5064124;28;20695;-43
2022/12/15 09:41:36;;;;;;;16.77;11.03;;;-2.10;99.90;;;;;;5055640;28;20306;-50
2022/12/15 09:44:06;;;;;;;21.23;12.07;;;-2.00;99.90;;;;;;5058065;28;20218;-44
2022/12/15 09:46:47;;;;;;;23.27;11.43;;;-1.90;99.90;;;;;;5051144;28;20214;-53
2022/12/15 09:49:22;;;;;;;17.80;11.07;;;-1.80;99.90;;;;;;5051134;28;20199;-50
2022/12/15 09:51:56;;;;;;;19.97;11.20;;;-1.80;99.90;;;;;;5037524;28;20237;-47
2022/12/15 09:54:27;;;;;;;19.10;10.97;;;-1.70;99.90;;;;;;5052682;28;20233;-49
2022/12/15 09:56:58;;;;;;;27.83;13.00;;;-1.60;99.90;;;;;;5056742;28;20191;-46
2022/12/15 09:59:32;;;;;;;17.17;10.43;;;-1.50;99.90;;;;;;5056907;28;20240;-50
2022/12/15 10:02:18;;;;;;;20.07;10.97;;;-1.40;99.90;;;;;;5051245;28;20214;-46
2022/12/15 10:04:52;;;;;;;18.10;10.37;;;-1.30;99.90;;;;;;5049202;28;20257;-45
2022/12/15 10:07:28;;;;;;;14.30;10.27;;;-1.30;99.90;;;;;;5042662;28;20209;-55
2022/12/15 10:09:55;;;;;;;14.40;9.73;;;-1.30;99.90;;;;;;5055611;28;20301;-45
2022/12/15 10:12:26;;;;;;;22.73;10.27;;;-1.40;99.90;;;;;;5060296;28;20241;-54
2022/12/15 10:15:05;;;;;;;19.30;10.13;;;-1.40;99.90;;;;;;5050883;28;20912;-51
2022/12/15 10:17:42;;;;;;;15.27;9.50;;;-1.30;99.90;;;;;;5059012;28;20804;-50
2022/12/15 10:20:18;;;;;;;17.70;9.77;;;-1.30;99.90;;;;;;5051839;28;20234;-50
2022/12/15 10:22:45;;;;;;;18.00;10.93;;;-1.30;99.90;;;;;;5040440;28;20222;-49
2022/12/15 10:25:16;;;;;;;15.17;9.60;;;-1.30;99.90;;;;;;5056208;28;20444;-44
2022/12/15 10:28:10;;;;;;;17.93;10.37;;;-1.30;99.90;;;;;;5058100;28;20203;-49
2022/12/15 10:30:43;;;;;;;21.60;11.00;;;-1.20;99.90;;;;;;5050597;28;20202;-46
2022/12/15 10:33:18;;;;;;;20.20;10.03;;;-1.20;99.90;;;;;;5062801;28;20216;-45
2022/12/15 10:35:46;;;;;;;22.23;11.87;;;-1.10;99.90;;;;;;5046114;28;20191;-46
2022/12/15 10:38:24;;;;;;;30.77;13.07;;;-1.10;99.90;;;;;;5045022;28;20203;-48
2022/12/15 10:40:54;;;;;;;35.10;13.40;;;-1.00;99.90;;;;;;5054169;28;20191;-47
2022/12/15 10:43:27;;;;;;;18.53;10.70;;;-1.00;99.90;;;;;;5052709;28;20192;-52
2022/12/15 10:46:01;;;;;;;23.07;13.23;;;-1.00;99.90;;;;;;5051444;28;20197;-46
2022/12/15 10:48:28;;;;;;;28.67;12.77;;;-0.90;99.90;;;;;;5051993;28;20204;-53
2022/12/15 10:51:14;;;;;;;16.63;9.73;;;-0.90;99.90;;;;;;5051816;28;21078;-44
2022/12/15 10:53:43;;;;;;;25.40;12.43;;;-0.80;99.90;;;;;;5038453;28;20285;-47
2022/12/15 10:56:20;;;;;;;29.03;13.57;;;-0.80;99.90;;;;;;5062144;28;21754;-44
2022/12/15 10:58:50;;;;;;;18.27;10.97;;;-0.80;99.90;;;;;;5052998;28;20616;-44
2022/12/15 11:01:20;;;;;;;22.87;12.17;;;-0.80;99.90;;;;;;5054868;28;20216;-52
2022/12/15 11:03:50;;;;;;;19.77;11.27;;;-0.70;99.90;;;;;;5049674;28;20272;-44
2022/12/15 11:06:21;;;;;;;16.47;11.03;;;-0.70;99.90;;;;;;5056390;28;20202;-48
2022/12/15 11:08:50;;;;;;;22.33;12.30;;;-0.70;99.90;;;;;;5044834;28;20202;-46
2022/12/15 11:14:18;;;;;;;15.87;10.17;;;-0.50;99.90;;;;;;5056435;28;20199;-48
2022/12/15 11:16:48;;;;;;;22.33;10.90;;;-0.50;99.90;;;;;;5054348;28;20301;-48
2022/12/15 11:19:21;;;;;;;24.77;11.60;;;-0.50;99.90;;;;;;5057920;28;20232;-48
2022/12/15 11:21:55;;;;;;;26.50;11.53;;;-0.50;99.90;;;;;;5045576;28;20231;-46
2022/12/15 11:24:28;;;;;;;30.03;12.70;;;-0.40;99.90;;;;;;5051033;28;20212;-52
2022/12/15 11:27:01;;;;;;;23.27;12.47;;;-0.30;99.90;;;;;;5058404;28;20197;-45
2022/12/15 11:29:37;;;;;;;21.87;11.23;;;-0.30;99.90;;;;;;5062855;28;20208;-51
2022/12/15 11:32:05;;;;;;;15.87;10.20;;;-0.20;99.90;;;;;;5061494;28;20246;-45
2022/12/15 11:34:36;;;;;;;21.43;11.80;;;-0.20;99.90;;;;;;5062918;28;20557;-54
2022/12/15 11:37:38;;;;;;;21.30;10.93;;;-0.20;99.90;;;;;;5065096;28;20214;-50
2022/12/15 11:40:42;;;;;;;16.77;10.17;;;-0.20;99.90;;;;;;5060909;28;20196;-47
2022/12/15 11:43:33;;;;;;;18.33;9.57;;;-0.10;99.90;;;;;;5055744;28;20331;-50
2022/12/15 11:46:09;;;;;;;16.67;9.30;;;-0.10;99.90;;;;;;5055188;28;20753;-45
2022/12/15 11:48:46;;;;;;;20.43;9.83;;;0.00;99.90;;;;;;5051682;28;21163;-46
2022/12/15 11:51:20;;;;;;;19.17;9.57;;;0.00;99.90;;;;;;5061554;28;20726;-48
2022/12/15 11:54:06;;;;;;;15.43;8.73;;;0.10;99.90;;;;;;5049264;28;20253;-51
2022/12/15 11:56:35;;;;;;;19.63;8.90;;;0.20;99.90;;;;;;5033225;28;20209;-52
2022/12/15 11:59:23;;;;;;;15.60;9.07;;;0.20;99.90;;;;;;5060625;28;20277;-49
2022/12/15 12:02:03;;;;;;;19.73;8.60;;;0.30;99.90;;;;;;5054908;28;20213;-50
2022/12/15 12:04:39;;;;;;;13.67;8.07;;;0.30;99.90;;;;;;5056498;28;20194;-49
2022/12/15 12:07:13;;;;;;;12.47;7.67;;;0.30;99.90;;;;;;5057641;28;20209;-52
2022/12/15 12:09:50;;;;;;;14.40;9.43;;;0.40;99.90;;;;;;5053599;28;20258;-46
2022/12/15 12:12:30;;;;;;;24.27;10.03;;;0.40;99.90;;;;;;5047150;28;20216;-50
2022/12/15 12:15:14;;;;;;;22.97;10.20;;;0.50;99.90;;;;;;5060352;28;20230;-47
2022/12/15 12:17:45;;;;;;;24.87;9.77;;;0.60;99.90;;;;;;5059059;28;20324;-52
2022/12/15 12:20:17;;;;;;;20.23;10.07;;;0.60;99.90;;;;;;5054547;28;20194;-51
2022/12/15 12:22:52;;;;;;;36.90;12.37;;;0.60;99.90;;;;;;5058942;28;20277;-47
2022/12/15 12:25:22;;;;;;;25.63;11.17;;;0.60;99.90;;;;;;5059178;28;20205;-51
2022/12/15 12:27:55;;;;;;;18.40;8.63;;;0.70;99.90;;;;;;5037508;28;20206;-52
2022/12/15 12:30:24;;;;;;;16.13;9.43;;;0.70;99.90;;;;;;5059964;28;20209;-54
2022/12/15 12:32:58;;;;;;;15.20;9.17;;;0.70;99.90;;;;;;5058909;28;20217;-50
2022/12/15 12:35:31;;;;;;;15.43;8.50;;;0.70;99.90;;;;;;5062945;28;20218;-50
2022/12/15 12:38:00;;;;;;;18.60;9.07;;;0.70;99.90;;;;;;5060877;28;20221;-51
2022/12/15 12:40:36;;;;;;;17.30;8.53;;;0.70;99.90;;;;;;5049671;28;20711;-51
2022/12/15 12:43:04;;;;;;;19.97;9.53;;;0.70;99.90;;;;;;5043608;28;20229;-47
2022/12/15 12:45:37;;;;;;;16.93;9.00;;;0.70;99.90;;;;;;5057174;28;20240;-53
2022/12/15 12:48:12;;;;;;;24.13;9.23;;;0.70;99.90;;;;;;5045294;28;20248;-51
2022/12/15 12:50:39;;;;;;;18.27;9.53;;;0.70;99.90;;;;;;5051460;28;20205;-48
2022/12/15 12:53:23;;;;;;;13.37;8.47;;;0.70;99.90;;;;;;5049299;28;20222;-52
2022/12/15 12:55:51;;;;;;;13.57;8.67;;;0.70;99.90;;;;;;5049458;28;20202;-46
2022/12/15 12:58:31;;;;;;;12.63;8.17;;;0.70;99.90;;;;;;5030064;28;20250;-52
2022/12/15 13:01:18;;;;;;;23.40;10.47;;;0.70;99.90;;;;;;5042552;28;20209;-48
2022/12/15 13:03:47;;;;;;;15.77;9.50;;;0.70;99.90;;;;;;5048476;28;20286;-47
2022/12/15 13:06:22;;;;;;;26.97;11.27;;;0.80;99.90;;;;;;5058574;28;20225;-53
2022/12/15 13:08:51;;;;;;;18.93;9.33;;;0.80;99.90;;;;;;5058480;28;20189;-51
2022/12/15 13:12:00;;;;;;;15.53;9.20;;;0.80;99.90;;;;;;5050861;28;20229;-49
2022/12/15 13:14:44;;;;;;;17.30;9.70;;;0.80;99.90;;;;;;5038564;28;20194;-51
2022/12/15 13:17:17;;;;;;;14.83;8.90;;;0.80;99.90;;;;;;5045977;28;21045;-50
2022/12/15 13:20:16;;;;;;;11.83;8.07;;;0.90;99.90;;;;;;5050816;28;20221;-46
2022/12/15 13:22:43;;;;;;;19.47;8.67;;;0.90;99.90;;;;;;5034666;28;20225;-44
2022/12/15 13:25:35;;;;;;;12.90;7.93;;;0.90;99.90;;;;;;5056235;28;20206;-47
2022/12/15 13:28:17;;;;;;;17.47;8.70;;;0.90;99.90;;;;;;5044799;28;20696;-50
2022/12/15 13:31:14;;;;;;;18.87;10.13;;;0.90;99.90;;;;;;5058556;28;20205;-47
2022/12/15 13:33:45;;;;;;;24.70;11.63;;;0.90;99.90;;;;;;5057227;28;20231;-43
2022/12/15 13:36:32;;;;;;;16.73;9.23;;;0.90;99.90;;;;;;5053920;28;20211;-51
2022/12/15 13:39:00;;;;;;;17.30;8.93;;;0.90;99.90;;;;;;5057311;28;20230;-44
2022/12/15 13:41:27;;;;;;;18.47;9.73;;;0.90;99.90;;;;;;5058003;28;20206;-44
2022/12/15 13:43:55;;;;;;;16.73;9.63;;;0.90;99.90;;;;;;5040394;28;20209;-46
2022/12/15 13:46:25;;;;;;;13.03;8.87;;;1.00;99.90;;;;;;5052884;28;20202;-47
2022/12/15 13:49:03;;;;;;;12.37;8.00;;;1.00;99.90;;;;;;5057406;28;20243;-49
2022/12/15 13:51:33;;;;;;;15.07;8.37;;;1.00;99.90;;;;;;5054447;28;20300;-47
2022/12/15 13:54:04;;;;;;;12.17;8.43;;;1.00;99.90;;;;;;5055829;28;20263;-49
2022/12/15 13:56:50;;;;;;;11.20;8.27;;;1.00;99.90;;;;;;5063964;28;20197;-50
2022/12/15 13:59:26;;;;;;;10.80;7.97;;;1.00;99.90;;;;;;5040145;28;20198;-51
2022/12/15 14:01:53;;;;;;;12.10;8.17;;;1.00;99.90;;;;;;5057898;28;20225;-46
2022/12/15 14:04:21;;;;;;;17.63;9.63;;;1.00;99.90;;;;;;5043113;28;20287;-49
2022/12/15 14:06:51;;;;;;;18.70;10.20;;;1.00;99.90;;;;;;5055862;28;20217;-47
2022/12/15 14:09:25;;;;;;;18.67;10.77;;;1.10;99.90;;;;;;5048446;28;20237;-53
2022/12/15 14:11:52;;;;;;;11.17;7.83;;;1.10;99.90;;;;;;5043365;28;20289;-49
2022/12/15 14:14:22;;;;;;;13.07;8.37;;;1.10;99.90;;;;;;5035303;28;20233;-50
2022/12/15 14:16:55;;;;;;;15.03;9.07;;;1.10;99.90;;;;;;5057994;28;20202;-47
2022/12/15 14:19:22;;;;;;;17.17;9.03;;;1.10;99.90;;;;;;5042852;28;20205;-51
2022/12/15 14:21:52;;;;;;;14.30;8.63;;;1.10;99.90;;;;;;5054348;28;20211;-47
2022/12/15 14:24:24;;;;;;;14.53;7.80;;;1.10;99.90;;;;;;5051585;28;20205;-51
2022/12/15 14:26:51;;;;;;;16.73;7.10;;;1.10;99.90;;;;;;5052917;28;20217;-50
2022/12/15 14:29:19;;;;;;;10.33;7.40;;;1.10;99.90;;;;;;5041082;28;20209;-51
2022/12/15 14:31:49;;;;;;;11.10;7.53;;;1.10;99.90;;;;;;5060601;28;20237;-50
2022/12/15 14:34:23;;;;;;;9.87;6.80;;;1.20;99.90;;;;;;5048576;28;20226;-51
2022/12/15 14:36:50;;;;;;;7.97;6.60;;;1.20;99.90;;;;;;5056691;28;20202;-47
2022/12/15 14:39:23;;;;;;;9.07;7.13;;;1.20;99.90;;;;;;5051508;28;20209;-47
2022/12/15 14:41:53;;;;;;;12.73;6.90;;;1.20;99.90;;;;;;5063751;28;20274;-50
2022/12/15 14:44:27;;;;;;;19.47;7.77;;;1.20;99.90;;;;;;5047841;28;20210;-48
2022/12/15 14:46:57;;;;;;;11.37;7.60;;;1.20;99.90;;;;;;5044120;28;20206;-48
2022/12/15 14:49:26;;;;;;;10.07;7.37;;;1.20;99.90;;;;;;5053940;28;20198;-47
2022/12/15 14:51:59;;;;;;;11.63;7.03;;;1.20;99.90;;;;;;5057062;28;20285;-47
2022/12/15 14:54:32;;;;;;;10.20;6.03;;;1.10;99.90;;;;;;5049335;28;22951;-47
2022/12/15 14:57:04;;;;;;;11.33;6.83;;;1.10;99.90;;;;;;5055169;28;20214;-48
2022/12/15 14:59:34;;;;;;;9.40;7.20;;;1.00;99.90;;;;;;5051926;28;20246;-47
2022/12/15 15:02:12;;;;;;;11.60;7.53;;;1.00;99.90;;;;;;5039733;28;20242;-51
2022/12/15 15:04:40;;;;;;;14.93;8.07;;;0.90;99.90;;;;;;5056887;28;20616;-48
2022/12/15 15:07:15;;;;;;;9.63;6.83;;;0.90;99.90;;;;;;5053760;28;20630;-47
2022/12/15 15:09:45;;;;;;;8.97;6.60;;;0.90;99.90;;;;;;5057013;28;20204;-45
2022/12/15 15:12:16;;;;;;;13.70;7.47;;;0.80;99.90;;;;;;5046682;28;20230;-51
2022/12/15 15:14:46;;;;;;;13.20;8.00;;;0.80;99.90;;;;;;5053729;28;20587;-46
2022/12/15 15:17:22;;;;;;;9.60;7.07;;;0.80;99.90;;;;;;5036619;28;20210;-46
2022/12/15 15:19:52;;;;;;;9.97;7.73;;;0.80;99.90;;;;;;5058010;28;20211;-48
2022/12/15 15:22:34;;;;;;;8.03;6.77;;;0.80;99.90;;;;;;5050741;28;20275;-44
2022/12/15 15:25:18;;;;;;;10.97;6.90;;;0.80;99.90;;;;;;5055664;28;20286;-50